Time;durP1;ratioP1;P1;durP2;ratioP2;P2;SDS_P1;SDS_P2;PMS_P1;PMS_P2;Temp;Humidity;BMP_temperature;BMP_pressure;BME280_temperature;BME280_humidity;BME280_pressure;Samples;Min_cycle;Max_cycle;Signal;HPM_P1;HPM_P2
2022/06/25 00:01:37;;;;;;;1.63;1.33;;;18.10;99.90;;;;;;5060204;28;20455;-74
2022/06/25 00:04:04;;;;;;;1.85;1.20;;;18.10;99.90;;;;;;5059019;28;20032;-75
2022/06/25 00:06:31;;;;;;;2.05;1.30;;;18.00;99.90;;;;;;5058200;28;20032;-75
2022/06/25 00:08:57;;;;;;;2.63;1.50;;;18.00;99.90;;;;;;5051290;28;20536;-75
2022/06/25 00:14:14;;;;;;;2.15;1.35;;;18.00;99.90;;;;;;5057673;28;20036;-74
2022/06/25 00:16:40;;;;;;;2.03;1.40;;;18.00;99.90;;;;;;5057653;28;20503;-74
2022/06/25 00:19:06;;;;;;;2.80;1.50;;;17.90;99.90;;;;;;5053742;28;20020;-74
2022/06/25 00:21:33;;;;;;;1.65;1.15;;;17.90;99.90;;;;;;5057556;28;20037;-74
2022/06/25 00:23:59;;;;;;;1.80;1.23;;;17.90;99.90;;;;;;5042436;28;20451;-74
2022/06/25 00:26:29;;;;;;;2.17;1.20;;;17.90;99.90;;;;;;5055399;28;20029;-74
2022/06/25 00:29:00;;;;;;;1.85;1.08;;;17.80;99.90;;;;;;5051476;28;20037;-74
2022/06/25 00:31:26;;;;;;;1.60;1.00;;;17.80;99.90;;;;;;5056438;28;20025;-74
2022/06/25 00:33:53;;;;;;;2.13;0.95;;;17.80;99.90;;;;;;5039671;28;20021;-74
2022/06/25 00:36:19;;;;;;;1.52;1.17;;;17.80;99.90;;;;;;5071989;28;20063;-74
2022/06/25 00:38:47;;;;;;;1.65;1.30;;;17.80;99.90;;;;;;5052776;28;20056;-75
2022/06/25 00:41:15;;;;;;;1.60;1.00;;;17.80;99.90;;;;;;5056059;28;20029;-74
2022/06/25 00:43:42;;;;;;;2.58;1.20;;;17.80;99.90;;;;;;5057524;28;20099;-74
2022/06/25 00:46:08;;;;;;;2.33;1.38;;;17.80;99.90;;;;;;5042126;28;20047;-74
2022/06/25 00:48:36;;;;;;;1.85;1.38;;;17.70;99.90;;;;;;5058347;28;20029;-74
2022/06/25 00:51:09;;;;;;;2.85;0.90;;;17.80;99.90;;;;;;5055163;28;20021;-74
2022/06/25 00:53:39;;;;;;;1.60;0.82;;;17.80;99.90;;;;;;5056234;28;20036;-74
2022/06/25 00:56:09;;;;;;;2.45;1.10;;;17.80;99.90;;;;;;5054274;28;20036;-74
2022/06/25 00:58:39;;;;;;;1.77;1.17;;;17.80;99.90;;;;;;5073938;28;20040;-74
2022/06/25 01:01:08;;;;;;;2.20;0.80;;;17.70;99.90;;;;;;5028975;28;20472;-74
2022/06/25 01:03:38;;;;;;;1.95;1.10;;;17.70;99.90;;;;;;5068879;28;20013;-75
2022/06/25 01:06:06;;;;;;;1.63;0.88;;;17.70;99.90;;;;;;5054160;28;22486;-74
2022/06/25 01:08:34;;;;;;;1.88;1.30;;;17.70;99.90;;;;;;5023879;28;20021;-74
2022/06/25 01:11:01;;;;;;;2.33;0.88;;;17.70;99.90;;;;;;5023519;28;20027;-74
2022/06/25 01:13:30;;;;;;;1.77;1.15;;;17.70;99.90;;;;;;5056575;28;20375;-75
2022/06/25 01:15:57;;;;;;;2.42;0.85;;;17.70;99.90;;;;;;5057898;28;20024;-74
2022/06/25 01:18:23;;;;;;;1.40;1.00;;;17.70;99.90;;;;;;5052004;28;20028;-74
2022/06/25 01:20:50;;;;;;;2.22;1.08;;;17.60;99.90;;;;;;5024715;28;20040;-74
2022/06/25 01:23:16;;;;;;;1.95;0.90;;;17.70;99.90;;;;;;5061490;28;20016;-74
2022/06/25 01:25:44;;;;;;;1.48;1.00;;;17.60;99.90;;;;;;5052563;28;20043;-75
2022/06/25 01:28:11;;;;;;;2.25;1.20;;;17.60;99.90;;;;;;5043499;28;20032;-75
2022/06/25 01:30:37;;;;;;;2.53;0.98;;;17.60;99.90;;;;;;5069065;28;20039;-75
2022/06/25 01:33:08;;;;;;;1.75;1.10;;;17.60;99.90;;;;;;5035719;28;20028;-74
2022/06/25 01:35:35;;;;;;;2.03;1.00;;;17.60;99.90;;;;;;5075983;28;20036;-74
2022/06/25 01:38:02;;;;;;;1.23;0.77;;;17.60;99.90;;;;;;5055982;28;20032;-77
2022/06/25 01:40:32;;;;;;;2.08;0.85;;;17.60;99.90;;;;;;5053176;28;20032;-77
2022/06/25 01:42:58;;;;;;;1.90;0.93;;;17.60;99.90;;;;;;5041645;28;20021;-74
2022/06/25 01:45:34;;;;;;;2.03;1.00;;;17.60;99.90;;;;;;5042151;28;20390;-74
2022/06/25 01:48:05;;;;;;;1.83;0.80;;;17.60;99.90;;;;;;5055006;28;21369;-75
2022/06/25 01:50:33;;;;;;;2.03;0.98;;;17.50;99.90;;;;;;5072796;28;20033;-74
2022/06/25 01:53:00;;;;;;;1.30;0.52;;;17.50;99.90;;;;;;5053197;28;20029;-75
2022/06/25 01:55:26;;;;;;;1.10;0.60;;;17.50;99.90;;;;;;5057712;28;20040;-76
2022/06/25 01:57:54;;;;;;;1.13;0.73;;;17.50;99.90;;;;;;5045248;28;20048;-77
2022/06/25 02:00:23;;;;;;;2.42;0.85;;;17.50;99.90;;;;;;5042310;28;20349;-77
2022/06/25 02:02:54;;;;;;;0.80;0.55;;;17.40;99.90;;;;;;5046236;28;20036;-76
2022/06/25 02:06:08;;;;;;;2.10;0.90;;;17.40;99.90;;;;;;5076795;28;20041;-77
2022/06/25 02:08:16;;;;;;;3.20;0.90;;;17.40;99.90;;;;;;5054284;28;20037;-77
2022/06/25 02:10:46;;;;;;;3.85;1.10;;;17.40;99.90;;;;;;5033580;28;20475;-77
2022/06/25 02:13:13;;;;;;;2.45;0.90;;;17.40;99.90;;;;;;5052757;28;20020;-77
2022/06/25 02:15:41;;;;;;;1.85;0.88;;;17.30;99.90;;;;;;5055179;28;20025;-77
2022/06/25 02:18:08;;;;;;;1.63;0.73;;;17.40;99.90;;;;;;5051271;28;20024;-77
2022/06/25 02:20:35;;;;;;;1.60;1.15;;;17.30;99.90;;;;;;5055298;28;20040;-77
2022/06/25 02:23:01;;;;;;;2.22;1.20;;;17.30;99.90;;;;;;5026088;28;20025;-74
2022/06/25 02:25:28;;;;;;;1.88;0.93;;;17.30;99.90;;;;;;5056212;28;20045;-75
2022/06/25 02:27:54;;;;;;;2.25;0.90;;;17.30;99.90;;;;;;5053292;28;20480;-77
2022/06/25 02:30:21;;;;;;;1.42;0.88;;;17.30;99.90;;;;;;5040793;28;20551;-74
2022/06/25 02:32:49;;;;;;;2.13;1.00;;;17.30;99.90;;;;;;5054167;28;20021;-77
2022/06/25 02:35:16;;;;;;;1.38;0.70;;;17.30;99.90;;;;;;5055425;28;20074;-75
2022/06/25 02:37:44;;;;;;;1.65;0.80;;;17.20;99.90;;;;;;5042229;28;20048;-77
2022/06/25 02:40:14;;;;;;;2.05;0.90;;;17.20;99.90;;;;;;5066027;28;20032;-75
2022/06/25 02:42:42;;;;;;;1.77;0.77;;;17.20;99.90;;;;;;5072418;28;20037;-77
2022/06/25 02:45:11;;;;;;;1.80;0.80;;;17.20;99.90;;;;;;5040764;28;20041;-77
2022/06/25 02:47:41;;;;;;;2.15;0.90;;;17.10;99.90;;;;;;5057995;28;20036;-75
2022/06/25 02:50:11;;;;;;;1.40;0.90;;;17.10;99.90;;;;;;5022461;28;20021;-74
2022/06/25 02:52:41;;;;;;;;;;;17.10;99.90;;;;;;5057089;28;20499;-75
2022/06/25 02:55:13;;;;;;;2.63;0.90;;;17.10;99.90;;;;;;5055449;28;19920;-77
2022/06/25 03:00:36;;;;;;;2.50;1.00;;;17.00;99.90;;;;;;5065459;28;20037;-77
2022/06/25 03:03:03;;;;;;;1.27;0.80;;;17.00;99.90;;;;;;5056339;28;20028;-77
2022/06/25 03:05:30;;;;;;;1.85;1.25;;;17.00;99.90;;;;;;5055891;28;20047;-77
2022/06/25 03:07:56;;;;;;;1.92;0.70;;;17.00;99.90;;;;;;5036602;28;20017;-75
2022/06/25 03:10:22;;;;;;;1.45;0.93;;;17.00;99.90;;;;;;5046949;28;20040;-75
2022/06/25 03:12:49;;;;;;;2.78;0.80;;;17.00;99.90;;;;;;5053617;28;20421;-77
2022/06/25 03:15:19;;;;;;;2.38;0.82;;;17.00;99.90;;;;;;5055144;28;20037;-74
2022/06/25 03:17:46;;;;;;;2.28;1.00;;;17.00;99.90;;;;;;5038777;28;20032;-77
2022/06/25 03:20:35;;;;;;;1.77;0.80;;;16.90;99.90;;;;;;5012549;28;20049;-75
2022/06/25 03:23:04;;;;;;;2.42;0.90;;;16.90;99.90;;;;;;5006569;28;20017;-75
2022/06/25 03:25:30;;;;;;;2.35;0.85;;;16.90;99.90;;;;;;5037166;28;20059;-75
2022/06/25 03:28:02;;;;;;;3.85;0.98;;;16.90;99.90;;;;;;5026177;28;20028;-75
2022/06/25 03:30:28;;;;;;;1.67;0.80;;;16.90;99.90;;;;;;5053110;28;20033;-74
2022/06/25 03:32:55;;;;;;;1.98;0.80;;;16.90;99.90;;;;;;5057550;28;20026;-77
2022/06/25 03:35:40;;;;;;;2.03;0.95;;;16.90;99.90;;;;;;5052877;28;20451;-75
2022/06/25 03:38:11;;;;;;;1.75;0.90;;;16.90;99.90;;;;;;5042135;28;20044;-75
2022/06/25 03:40:38;;;;;;;1.40;0.80;;;16.80;99.90;;;;;;5052442;28;20024;-74
2022/06/25 03:43:07;;;;;;;1.27;0.80;;;16.80;99.90;;;;;;5055331;28;20385;-76
2022/06/25 03:45:38;;;;;;;1.77;0.80;;;16.80;99.90;;;;;;5053498;28;20033;-77
2022/06/25 03:48:05;;;;;;;2.70;0.85;;;16.80;99.90;;;;;;5053896;28;20029;-77
2022/06/25 03:50:37;;;;;;;3.20;0.90;;;16.80;99.90;;;;;;5024205;28;20376;-74
2022/06/25 03:53:04;;;;;;;4.10;0.93;;;16.80;99.90;;;;;;5041234;28;20033;-75
2022/06/25 03:55:32;;;;;;;2.78;1.10;;;16.80;99.90;;;;;;5040134;28;20016;-74
2022/06/25 03:58:03;;;;;;;1.70;0.75;;;16.80;99.90;;;;;;5058132;28;21483;-77
2022/06/25 04:00:36;;;;;;;1.30;0.93;;;16.90;99.90;;;;;;5038135;28;20020;-74
2022/06/25 04:03:02;;;;;;;2.08;1.08;;;16.90;99.90;;;;;;5039966;28;20055;-76
2022/06/25 04:05:29;;;;;;;2.00;0.70;;;16.90;99.90;;;;;;5054200;28;20099;-75
2022/06/25 04:08:13;;;;;;;4.13;0.90;;;16.90;99.90;;;;;;5060892;28;20028;-74
2022/06/25 04:10:40;;;;;;;1.77;0.82;;;17.00;99.90;;;;;;5052034;28;20028;-74
2022/06/25 04:13:08;;;;;;;1.67;0.88;;;17.00;99.90;;;;;;5055900;28;20028;-76
2022/06/25 04:15:37;;;;;;;2.45;1.13;;;17.10;99.90;;;;;;5058877;28;20037;-74
2022/06/25 04:18:04;;;;;;;2.15;0.80;;;17.10;99.90;;;;;;5061513;28;20032;-76
2022/06/25 04:20:33;;;;;;;2.17;0.80;;;17.20;99.90;;;;;;5057330;28;20040;-77
2022/06/25 04:23:00;;;;;;;2.47;0.70;;;17.30;99.90;;;;;;5048203;28;20040;-74
2022/06/25 04:25:27;;;;;;;2.25;1.10;;;17.30;99.90;;;;;;5055147;28;20033;-74
2022/06/25 04:30:39;;;;;;;2.88;1.00;;;17.50;99.90;;;;;;5075114;28;20025;-74
2022/06/25 04:33:07;;;;;;;2.83;0.98;;;17.60;99.90;;;;;;5067886;28;20025;-74
2022/06/25 04:35:56;;;;;;;3.70;1.05;;;17.70;99.90;;;;;;5057813;28;20487;-75
2022/06/25 04:38:41;;;;;;;5.55;1.60;;;17.80;99.90;;;;;;5054334;28;20049;-74
2022/06/25 04:41:08;;;;;;;1.40;0.80;;;17.90;99.90;;;;;;5076881;28;20036;-74
2022/06/25 04:43:35;;;;;;;2.42;1.00;;;18.00;99.90;;;;;;5041886;28;20116;-74
2022/06/25 04:46:04;;;;;;;2.20;0.98;;;18.10;99.90;;;;;;5054340;28;20040;-75
2022/06/25 04:48:32;;;;;;;1.75;0.93;;;18.10;99.90;;;;;;5053714;28;20024;-74
2022/06/25 04:51:14;;;;;;;1.55;0.90;;;18.20;99.90;;;;;;5058767;28;20020;-75
2022/06/25 04:53:56;;;;;;;2.30;1.00;;;18.40;99.90;;;;;;5043626;28;20037;-77
2022/06/25 04:56:42;;;;;;;6.28;1.20;;;18.50;99.90;;;;;;5042426;28;20032;-74
2022/06/25 04:59:10;;;;;;;3.42;1.48;;;18.70;99.90;;;;;;5039026;28;20032;-77
2022/06/25 05:01:54;;;;;;;2.50;1.52;;;18.80;99.90;;;;;;5057306;28;20041;-77
2022/06/25 05:04:41;;;;;;;1.90;1.50;;;18.90;99.90;;;;;;5061302;28;20048;-77
2022/06/25 05:07:08;;;;;;;2.60;1.35;;;19.10;99.90;;;;;;5031738;28;20032;-77
2022/06/25 05:09:34;;;;;;;2.33;1.20;;;19.30;99.90;;;;;;5028501;28;20357;-77
2022/06/25 05:12:02;;;;;;;2.60;1.98;;;19.50;99.90;;;;;;5041008;28;20032;-77
2022/06/25 05:14:32;;;;;;;3.35;1.45;;;19.70;99.90;;;;;;5040704;28;20020;-77
2022/06/25 05:16:59;;;;;;;2.60;1.67;;;19.90;99.90;;;;;;5065439;28;20028;-77
2022/06/25 05:19:26;;;;;;;3.92;2.03;;;20.00;99.90;;;;;;5038887;28;20569;-77
2022/06/25 05:21:52;;;;;;;2.67;1.20;;;20.10;99.90;;;;;;5055753;28;20054;-77
2022/06/25 05:24:19;;;;;;;3.40;1.40;;;20.30;99.90;;;;;;5044138;28;20033;-75
2022/06/25 05:26:45;;;;;;;2.72;1.05;;;20.40;99.90;;;;;;5056350;28;20040;-74
2022/06/25 05:29:13;;;;;;;2.90;1.80;;;20.50;99.90;;;;;;5062899;28;20032;-75
2022/06/25 05:31:40;;;;;;;1.92;1.45;;;20.70;99.90;;;;;;5066872;28;20019;-74
2022/06/25 05:34:07;;;;;;;5.65;1.88;;;20.90;99.90;;;;;;5052226;28;20510;-74
2022/06/25 05:36:34;;;;;;;5.28;2.10;;;20.90;99.90;;;;;;5039520;28;20033;-74
2022/06/25 05:39:00;;;;;;;4.88;1.73;;;21.10;99.90;;;;;;5049422;28;20475;-74
2022/06/25 05:41:26;;;;;;;4.13;1.95;;;21.30;99.90;;;;;;5056739;28;20056;-74
2022/06/25 05:43:53;;;;;;;1.83;1.20;;;21.40;99.90;;;;;;5047116;28;20040;-75
2022/06/25 05:46:19;;;;;;;3.75;1.35;;;21.50;99.90;;;;;;5053381;28;20056;-75
2022/06/25 05:48:45;;;;;;;2.30;1.20;;;21.60;99.90;;;;;;5050886;28;20029;-74
2022/06/25 05:51:12;;;;;;;4.55;1.67;;;21.70;99.90;;;;;;5052105;28;20024;-74
2022/06/25 05:53:38;;;;;;;4.40;1.30;;;21.80;99.90;;;;;;5053800;28;20027;-74
2022/06/25 05:56:04;;;;;;;2.40;1.45;;;21.70;99.90;;;;;;5063449;28;20017;-74
2022/06/25 05:58:31;;;;;;;2.25;1.00;;;21.70;99.90;;;;;;5036411;28;20437;-74
2022/06/25 06:00:58;;;;;;;3.15;1.10;;;21.50;99.90;;;;;;5052633;28;20144;-74
2022/06/25 06:03:24;;;;;;;2.05;1.35;;;21.40;99.90;;;;;;5049261;28;20028;-74
2022/06/25 06:05:53;;;;;;;2.90;1.05;;;21.20;99.90;;;;;;5048477;28;20488;-74
2022/06/25 06:08:21;;;;;;;3.33;1.00;;;21.10;99.90;;;;;;5052694;28;20013;-74
2022/06/25 06:10:47;;;;;;;2.35;1.30;;;21.20;99.90;;;;;;5052686;28;20016;-75
2022/06/25 06:13:13;;;;;;;2.00;1.00;;;21.50;99.90;;;;;;5049243;28;20052;-74
2022/06/25 06:15:40;;;;;;;2.25;0.70;;;21.70;99.90;;;;;;5053656;28;20028;-75
2022/06/25 06:18:07;;;;;;;2.92;1.77;;;21.90;99.90;;;;;;5053102;28;20037;-74
2022/06/25 06:20:33;;;;;;;1.58;1.00;;;22.10;99.90;;;;;;5050636;28;20032;-74
2022/06/25 06:23:03;;;;;;;3.05;0.90;;;22.20;99.90;;;;;;5065316;28;20020;-75
2022/06/25 06:25:30;;;;;;;2.53;1.23;;;22.50;99.90;;;;;;5052251;28;20032;-75
2022/06/25 06:28:01;;;;;;;3.10;1.00;;;22.50;99.90;;;;;;5054696;28;20036;-75
2022/06/25 06:30:28;;;;;;;2.28;0.80;;;22.50;99.90;;;;;;5048861;28;20033;-74
2022/06/25 06:32:54;;;;;;;2.58;0.90;;;22.80;99.90;;;;;;5059759;28;20033;-76
2022/06/25 06:35:21;;;;;;;3.75;0.90;;;23.10;99.90;;;;;;5048927;28;20037;-76
2022/06/25 06:37:47;;;;;;;2.78;0.82;;;23.40;99.90;;;;;;5053248;28;20033;-76
2022/06/25 06:40:15;;;;;;;2.75;0.98;;;23.60;99.90;;;;;;5050872;28;20048;-76
2022/06/25 06:42:41;;;;;;;3.20;1.00;;;23.80;99.90;;;;;;5049812;28;20028;-75
2022/06/25 06:45:08;;;;;;;1.70;0.73;;;23.80;99.90;;;;;;5031384;28;20025;-74
2022/06/25 06:47:34;;;;;;;1.70;0.90;;;23.80;99.90;;;;;;5049986;28;20013;-74
2022/06/25 06:50:01;;;;;;;3.80;0.80;;;23.80;99.90;;;;;;5062688;28;20021;-74
2022/06/25 06:52:30;;;;;;;3.03;1.05;;;23.80;99.90;;;;;;5023803;28;20473;-75
2022/06/25 06:54:59;;;;;;;1.95;1.13;;;23.80;99.90;;;;;;5055196;28;20032;-74
2022/06/25 06:57:25;;;;;;;2.35;0.77;;;23.90;99.90;;;;;;5051112;28;20036;-74
2022/06/25 06:59:52;;;;;;;2.25;0.80;;;23.90;99.90;;;;;;5048078;28;20033;-74
2022/06/25 07:02:18;;;;;;;3.15;0.70;;;23.80;99.90;;;;;;5066775;28;20384;-74
2022/06/25 07:04:45;;;;;;;1.80;0.80;;;23.80;99.90;;;;;;5038381;28;20036;-75
2022/06/25 07:07:11;;;;;;;3.08;0.75;;;23.80;99.90;;;;;;5051513;28;20045;-75
2022/06/25 07:09:37;;;;;;;3.80;1.00;;;23.70;99.90;;;;;;5038427;28;20029;-76
2022/06/25 07:12:04;;;;;;;1.73;0.63;;;23.70;99.90;;;;;;5034829;28;20021;-75
2022/06/25 07:14:30;;;;;;;4.18;0.90;;;23.70;99.90;;;;;;5054714;28;20021;-74
2022/06/25 07:16:57;;;;;;;1.42;0.63;;;23.90;99.90;;;;;;5049622;28;20377;-75
2022/06/25 07:19:23;;;;;;;3.70;0.63;;;24.00;99.90;;;;;;5062015;28;20037;-75
2022/06/25 07:21:49;;;;;;;1.70;0.68;;;24.30;99.90;;;;;;5039288;28;20059;-74
2022/06/25 07:24:16;;;;;;;3.10;0.90;;;24.60;99.90;;;;;;5049052;28;20033;-74
2022/06/25 07:26:42;;;;;;;2.83;1.02;;;24.70;99.90;;;;;;5025752;28;20048;-75
2022/06/25 07:29:08;;;;;;;1.75;0.98;;;24.60;99.90;;;;;;5039580;28;20025;-74
2022/06/25 07:31:35;;;;;;;1.80;0.85;;;24.50;99.90;;;;;;5044463;28;20120;-75
2022/06/25 07:34:01;;;;;;;1.70;0.70;;;24.40;99.90;;;;;;5014184;28;20488;-74
2022/06/25 07:36:28;;;;;;;0.95;0.60;;;24.40;99.90;;;;;;5043752;28;20390;-75
2022/06/25 07:38:55;;;;;;;1.00;0.50;;;24.50;99.90;;;;;;5041625;28;20035;-75
2022/06/25 07:41:22;;;;;;;2.40;0.95;;;24.60;99.90;;;;;;5050589;28;20100;-74
2022/06/25 07:43:49;;;;;;;1.77;0.60;;;24.80;99.90;;;;;;5048082;28;20040;-75
2022/06/25 07:46:15;;;;;;;2.72;0.70;;;25.10;99.90;;;;;;5064741;28;20487;-76
2022/06/25 07:48:42;;;;;;;2.65;0.77;;;25.20;99.90;;;;;;5035088;28;20029;-75
2022/06/25 07:53:53;;;;;;;1.83;0.80;;;25.80;99.90;;;;;;5046807;28;20025;-75
2022/06/25 07:56:19;;;;;;;2.05;0.70;;;26.10;99.90;;;;;;5053709;28;20035;-75
2022/06/25 07:58:46;;;;;;;3.15;0.80;;;26.50;99.90;;;;;;5067419;28;20103;-75
2022/06/25 08:01:12;;;;;;;1.20;0.63;;;26.70;99.90;;;;;;5045895;28;20089;-73
2022/06/25 08:03:39;;;;;;;2.50;0.70;;;26.70;99.90;;;;;;5044065;28;20039;-73
2022/06/25 08:06:05;;;;;;;2.60;0.70;;;26.50;99.90;;;;;;5047279;28;20056;-73
2022/06/25 08:08:32;;;;;;;1.65;0.80;;;26.30;99.90;;;;;;5034764;28;20270;-74
2022/06/25 08:10:59;;;;;;;2.15;0.60;;;26.30;99.90;;;;;;5042248;28;20041;-73
2022/06/25 08:13:26;;;;;;;2.38;0.63;;;26.10;99.90;;;;;;5043446;28;21039;-74
2022/06/25 08:15:54;;;;;;;1.10;0.43;;;26.00;99.90;;;;;;5045298;28;20032;-75
2022/06/25 08:18:22;;;;;;;2.30;0.60;;;25.80;99.90;;;;;;5048451;28;20460;-74
2022/06/25 08:20:52;;;;;;;1.33;0.68;;;25.50;99.90;;;;;;5049973;28;20029;-75
2022/06/25 08:23:18;;;;;;;2.15;1.10;;;25.20;99.90;;;;;;5045734;28;21657;-74
2022/06/25 08:25:44;;;;;;;2.08;1.10;;;25.00;99.90;;;;;;5044673;28;20441;-75
2022/06/25 08:28:11;;;;;;;2.42;0.98;;;25.00;99.90;;;;;;5047090;28;20036;-75
2022/06/25 08:30:41;;;;;;;2.20;0.90;;;24.80;99.90;;;;;;5010684;28;20021;-75
2022/06/25 08:33:09;;;;;;;2.50;0.80;;;24.90;99.90;;;;;;5042908;28;20037;-75
2022/06/25 08:35:36;;;;;;;2.72;0.70;;;25.10;99.90;;;;;;5040274;28;20051;-75
2022/06/25 08:38:02;;;;;;;1.35;0.50;;;25.20;99.90;;;;;;5045352;28;20033;-74
2022/06/25 08:40:29;;;;;;;0.95;0.35;;;25.30;99.90;;;;;;5044621;28;20024;-75
2022/06/25 08:42:55;;;;;;;1.23;0.40;;;25.30;99.90;;;;;;5047299;28;20036;-75
2022/06/25 08:45:21;;;;;;;2.63;0.40;;;25.30;99.90;;;;;;5051748;28;20033;-74
2022/06/25 08:47:50;;;;;;;0.75;0.30;;;25.40;99.90;;;;;;5047343;28;20056;-75
2022/06/25 08:50:21;;;;;;;0.57;0.30;;;25.60;99.90;;;;;;5043823;28;20433;-73
2022/06/25 08:52:49;;;;;;;1.23;0.30;;;26.00;99.80;;;;;;5040960;28;20028;-74
2022/06/25 08:55:30;;;;;;;1.88;0.43;;;26.30;98.80;;;;;;5044156;28;20282;-75
2022/06/25 08:57:58;;;;;;;2.55;0.50;;;26.50;98.20;;;;;;5039246;28;20033;-76
2022/06/25 09:00:26;;;;;;;1.77;0.32;;;26.60;97.80;;;;;;5045065;28;20103;-75
2022/06/25 09:02:52;;;;;;;1.52;0.40;;;26.70;97.40;;;;;;5045590;28;20036;-75
2022/06/25 09:05:52;;;;;;;0.88;0.30;;;26.90;96.80;;;;;;5034456;28;20048;-75
2022/06/25 09:08:18;;;;;;;1.55;0.40;;;26.90;96.60;;;;;;5042986;28;20052;-75
2022/06/25 09:10:51;;;;;;;1.50;0.52;;;27.00;96.50;;;;;;5045874;28;20028;-77
2022/06/25 09:13:24;;;;;;;1.00;0.30;;;27.00;96.20;;;;;;5060159;28;20016;-76
2022/06/25 09:15:51;;;;;;;1.67;0.30;;;27.00;96.30;;;;;;5047933;28;20036;-74
2022/06/25 09:18:19;;;;;;;1.52;0.40;;;27.10;96.30;;;;;;5050874;28;20028;-74
2022/06/25 09:21:03;;;;;;;3.60;0.50;;;27.00;96.10;;;;;;5026213;28;20036;-74
2022/06/25 09:23:54;;;;;;;1.00;0.30;;;26.90;96.10;;;;;;5050705;28;20039;-75
2022/06/25 09:26:21;;;;;;;1.00;0.40;;;26.60;96.20;;;;;;5047485;28;20394;-74
2022/06/25 09:28:47;;;;;;;1.42;0.50;;;26.20;96.30;;;;;;5043076;28;20503;-74
2022/06/25 09:31:36;;;;;;;2.05;0.73;;;25.90;96.70;;;;;;5048136;28;23578;-77
2022/06/25 09:34:08;;;;;;;2.35;0.90;;;25.60;97.20;;;;;;5048628;28;20028;-77
2022/06/25 09:36:35;;;;;;;1.50;0.32;;;25.50;97.40;;;;;;5051063;28;20508;-77
2022/06/25 09:39:01;;;;;;;1.13;0.50;;;25.40;97.50;;;;;;5046943;28;20062;-77
2022/06/25 09:41:48;;;;;;;1.08;0.40;;;25.30;97.60;;;;;;5030336;28;20045;-77
2022/06/25 09:44:18;;;;;;;2.00;0.32;;;25.30;97.80;;;;;;5044184;28;20383;-78
2022/06/25 09:46:58;;;;;;;1.23;0.40;;;25.30;97.80;;;;;;5058083;28;20404;-75
2022/06/25 09:49:25;;;;;;;1.67;0.30;;;25.30;97.70;;;;;;5028670;28;20032;-74
2022/06/25 09:51:59;;;;;;;0.52;0.20;;;25.30;97.60;;;;;;5043111;28;20506;-74
2022/06/25 09:54:26;;;;;;;0.70;0.22;;;25.20;97.60;;;;;;5038693;28;20029;-74
2022/06/25 09:56:54;;;;;;;1.85;0.30;;;25.20;97.90;;;;;;5026105;28;21560;-78
2022/06/25 09:59:23;;;;;;;1.55;0.40;;;25.10;97.70;;;;;;5032126;28;20036;-74
2022/06/25 10:01:49;;;;;;;0.93;0.30;;;25.10;97.80;;;;;;5033700;28;20032;-78
2022/06/25 10:04:16;;;;;;;3.42;1.02;;;25.00;97.90;;;;;;5044566;28;20025;-78
2022/06/25 10:06:43;;;;;;;0.90;0.30;;;25.00;97.90;;;;;;5029304;28;20036;-78
2022/06/25 10:09:14;;;;;;;2.08;0.40;;;24.80;98.20;;;;;;5041319;28;20017;-77
2022/06/25 10:11:42;;;;;;;0.93;0.40;;;24.70;98.30;;;;;;5046434;28;20019;-77
2022/06/25 10:14:12;;;;;;;1.30;0.32;;;24.70;98.50;;;;;;5049123;28;20476;-78
2022/06/25 10:16:39;;;;;;;2.15;0.45;;;24.70;98.70;;;;;;5049391;28;20040;-77
2022/06/25 10:19:08;;;;;;;1.20;0.60;;;24.80;98.80;;;;;;5048729;28;20058;-77
2022/06/25 10:21:35;;;;;;;0.70;0.40;;;24.90;98.70;;;;;;5044568;28;20051;-77
2022/06/25 10:24:07;;;;;;;1.85;0.60;;;25.10;98.80;;;;;;5043570;28;20032;-77
2022/06/25 10:26:35;;;;;;;2.80;0.80;;;25.30;98.50;;;;;;5051578;28;20182;-77
2022/06/25 10:29:23;;;;;;;1.75;0.57;;;25.40;98.30;;;;;;5029931;28;20032;-77
2022/06/25 10:31:49;;;;;;;0.80;0.40;;;25.60;97.90;;;;;;5061055;28;20373;-77
2022/06/25 10:34:16;;;;;;;2.63;0.40;;;25.60;97.60;;;;;;5062112;28;20024;-77
2022/06/25 10:36:52;;;;;;;1.02;0.38;;;25.60;97.50;;;;;;5056649;28;20064;-77
2022/06/25 10:39:28;;;;;;;0.98;0.30;;;25.70;97.30;;;;;;5046268;28;20382;-77
2022/06/25 10:45:04;;;;;;;1.13;0.30;;;26.20;96.60;;;;;;5047722;28;20032;-77
2022/06/25 10:47:57;;;;;;;1.13;0.30;;;26.30;96.40;;;;;;5046912;28;20468;-77
2022/06/25 10:50:25;;;;;;;2.78;0.50;;;26.30;96.50;;;;;;5043154;28;20043;-77
2022/06/25 10:53:03;;;;;;;1.02;0.50;;;26.20;96.60;;;;;;5045681;28;20029;-77
2022/06/25 10:55:34;;;;;;;1.50;0.40;;;26.00;96.50;;;;;;5045558;28;20902;-77
2022/06/25 10:58:09;;;;;;;2.03;0.50;;;25.70;96.80;;;;;;5050190;28;20020;-77
2022/06/25 11:00:55;;;;;;;0.80;0.40;;;25.50;97.00;;;;;;5051911;28;20036;-77
2022/06/25 11:03:27;;;;;;;1.98;0.40;;;25.30;97.30;;;;;;5049758;28;20029;-79
2022/06/25 11:05:56;;;;;;;0.73;0.40;;;25.10;97.40;;;;;;5062725;28;20043;-77
2022/06/25 11:08:31;;;;;;;2.95;0.50;;;25.10;97.80;;;;;;5028973;28;20043;-77
2022/06/25 11:10:58;;;;;;;1.50;0.40;;;25.10;97.80;;;;;;5046818;28;20036;-77
2022/06/25 11:13:24;;;;;;;1.00;0.47;;;25.20;97.70;;;;;;5018413;28;20029;-78
2022/06/25 11:15:51;;;;;;;0.95;0.30;;;25.30;97.70;;;;;;5050416;28;20500;-79
2022/06/25 11:18:17;;;;;;;3.33;0.40;;;25.30;97.70;;;;;;5060615;28;20032;-79
2022/06/25 11:20:46;;;;;;;2.65;0.40;;;25.30;97.60;;;;;;5033915;28;20071;-77
2022/06/25 11:23:14;;;;;;;0.80;0.30;;;25.30;97.80;;;;;;5057736;28;20032;-77
2022/06/25 11:28:48;;;;;;;1.40;0.40;;;25.20;97.80;;;;;;5057289;28;20136;-80
2022/06/25 11:31:15;;;;;;;3.42;1.23;;;25.20;97.80;;;;;;5056373;28;20025;-79
2022/06/25 11:33:43;;;;;;;2.22;1.73;;;25.20;97.90;;;;;;5076760;28;20048;-78
2022/06/25 11:36:14;;;;;;;3.88;0.80;;;25.30;97.70;;;;;;5058217;28;20052;-79
2022/06/25 11:38:49;;;;;;;4.35;0.70;;;25.40;97.60;;;;;;5057254;28;20021;-79
2022/06/25 11:41:26;;;;;;;2.08;0.47;;;25.60;97.50;;;;;;5058398;28;20484;-78
2022/06/25 11:43:53;;;;;;;1.00;0.40;;;25.90;97.40;;;;;;5076025;28;20388;-78
2022/06/25 11:46:20;;;;;;;1.35;0.40;;;26.30;97.10;;;;;;5074770;28;20048;-79
2022/06/25 11:48:47;;;;;;;2.25;0.50;;;26.80;96.80;;;;;;5059379;28;20115;-79
2022/06/25 11:51:23;;;;;;;1.50;0.40;;;27.50;96.30;;;;;;5040577;28;20021;-79
2022/06/25 11:53:50;;;;;;;0.80;0.30;;;28.40;95.60;;;;;;5058090;28;20025;-78
2022/06/25 11:56:17;;;;;;;3.03;0.60;;;29.30;94.10;;;;;;5043488;28;20025;-79
2022/06/25 11:58:48;;;;;;;2.20;0.60;;;29.90;93.00;;;;;;5075742;28;21167;-79
2022/06/25 12:01:18;;;;;;;2.33;0.88;;;30.60;91.50;;;;;;5076073;28;20036;-76
2022/06/25 12:03:47;;;;;;;3.30;0.50;;;30.70;90.50;;;;;;5056107;28;20039;-77
2022/06/25 12:06:14;;;;;;;1.23;0.30;;;30.40;89.80;;;;;;5054881;28;20024;-77
2022/06/25 12:08:44;;;;;;;1.23;0.30;;;30.30;90.40;;;;;;5056677;28;20090;-78
2022/06/25 12:11:12;;;;;;;2.25;0.38;;;30.50;90.10;;;;;;5053051;28;20016;-78
2022/06/25 12:13:39;;;;;;;2.50;0.50;;;30.60;89.30;;;;;;5050792;28;20035;-78
2022/06/25 12:16:06;;;;;;;1.25;0.40;;;30.40;88.60;;;;;;5039449;28;20456;-78
2022/06/25 12:18:56;;;;;;;1.75;0.40;;;30.50;88.20;;;;;;5053874;28;20047;-78
2022/06/25 12:21:22;;;;;;;1.90;0.40;;;30.50;86.80;;;;;;5045903;28;20057;-78
2022/06/25 12:23:58;;;;;;;4.93;0.40;;;30.30;86.90;;;;;;5052038;28;20032;-78
2022/06/25 12:26:24;;;;;;;1.15;0.30;;;30.30;87.70;;;;;;5057950;28;20051;-78
2022/06/25 12:28:51;;;;;;;1.23;0.40;;;30.20;87.70;;;;;;5051206;28;20024;-78
2022/06/25 12:31:17;;;;;;;2.05;0.30;;;30.20;87.20;;;;;;5051750;28;20031;-78
2022/06/25 12:33:54;;;;;;;1.67;0.30;;;30.00;86.80;;;;;;5055952;28;20021;-78
2022/06/25 12:36:23;;;;;;;1.70;0.40;;;29.80;86.80;;;;;;5068703;28;20056;-78
2022/06/25 12:38:50;;;;;;;1.00;0.40;;;29.60;87.70;;;;;;5050459;28;20020;-78
2022/06/25 12:41:16;;;;;;;2.38;0.43;;;29.40;88.10;;;;;;5053529;28;20045;-78
2022/06/25 12:43:47;;;;;;;4.00;0.50;;;29.50;87.60;;;;;;5052491;28;20368;-78
2022/06/25 12:46:18;;;;;;;1.27;0.37;;;29.70;86.60;;;;;;5053294;28;20037;-78
2022/06/25 12:48:45;;;;;;;2.17;0.40;;;30.40;85.80;;;;;;5051694;28;20409;-78
2022/06/25 12:51:17;;;;;;;1.85;0.40;;;30.70;84.60;;;;;;5036792;28;20040;-77
2022/06/25 12:53:44;;;;;;;2.38;0.40;;;30.60;84.00;;;;;;5054448;28;20376;-78
2022/06/25 12:56:11;;;;;;;1.55;0.47;;;30.30;84.40;;;;;;5036572;28;20020;-78
2022/06/25 12:58:40;;;;;;;2.40;0.32;;;30.00;84.80;;;;;;5051917;28;20036;-76
2022/06/25 13:01:24;;;;;;;1.38;0.40;;;30.00;85.60;;;;;;5055938;28;20439;-78
2022/06/25 13:03:51;;;;;;;0.82;0.30;;;30.40;85.30;;;;;;5053845;28;20490;-78
2022/06/25 13:06:18;;;;;;;0.90;0.40;;;30.50;83.70;;;;;;5053597;28;20037;-78
2022/06/25 13:08:44;;;;;;;0.77;0.30;;;30.70;83.20;;;;;;5051573;28;20051;-78
2022/06/25 13:11:22;;;;;;;1.65;0.40;;;30.90;83.20;;;;;;5057624;28;20353;-77
2022/06/25 13:13:49;;;;;;;1.30;0.30;;;31.40;82.00;;;;;;5049354;28;20016;-78
2022/06/25 13:16:16;;;;;;;2.38;0.30;;;31.80;80.70;;;;;;5050001;28;20364;-77